Seligman, AZ (86337)

12:07 PM MST del 24 Maggio 2015 (GMT -0700)
W7RH Westwood Ranch | | Change Station
CLOSE
Current Station
Stazione meteo personale
Location: Ash Fork, AZ
Altitudine: 5912 ft
Stazioni meteo nelle vicinanze

Alt. 5912 ft 35.40 °N, 112.66 °W | Updated 13 minutes ago

Coperto
Coperto
64.8 °F
Sembra 64.8 °F
N
9.4
Vento Variabile Vento da Sud

Oggi
Massima -- | Minima -- °F
--% Possibilità di precip.
Ieri
Massima -- | Minima -- °F
Precip. -- in
5:21 AM 7:35 PM
Luna crescente, 41% visible
Pressione 30.15 in
Visibilità 10.0 miglia
Nuvole Coperto 4500 ft
Punto di rugiada 40 °F
Umidità 40%
Piovosità 0.00 in
Spessore del manto nevoso Non disponibile.
Raggi UV 4 fuori da 12
Polline 5.40 fuori da 12
Qualità dell'aria Non disponibile.
Flu Activity Local Activity
METAR KCMR 241855Z AUTO 21007KT 10SM OVC045 10/04 A3015 RMK AO2

More Conditions Fewer Conditions

Pressione 30.15 in
Visibilità 10.0 miglia
Nuvole Coperto 4500 ft
Punto di rugiada 40 °F
Umidità 40%
Piovosità 0.00 in
Spessore del manto nevoso Non disponibile.
Raggi UV 4 fuori da 12
Polline 5.40 fuori da 12
Qualità dell'aria Non disponibile.
Flu Activity Local Activity
METAR KCMR 241855Z AUTO 21007KT 10SM OVC045 10/04 A3015 RMK AO2

More Conditions Fewer Conditions

10-Day Weather Forecast

Almanac

Astronomia

May. 24, 2015 Alba Tramonto
Ora attuale
Crepuscolo civile
Crepuscolo nautico
Crepuscolo astronomico
Luna
Estensione della luce visibile
Lunghezza del giorno
Tomorrow will be .
, % of the Moon is Illuminated

Gli estremi di oggi

State Highs State Lows

Community

WunderPhotos

Upload Photos

1,823,831 foto caricate!

WunderBlogs® & News

Nearby

Qualità dell'aria

  Qualità dell'aria Indice AQ Inquinante
Not available.

Profondità neve

Stazione Profondità Altitudine

Attività sismica

Città  Distanza Mag. Data & Ora
Minimo Magnitudo Mostrato è 2.5.

Temperature delle acque costiere

Località Temperatura

Stations

Stazioni meteo nelle vicinanze

Ubicazione della stazione Temp. Raffreddamento del vento Punto di rugiada Umidità Vento Precip. Alt. Aggiornato Tipo